This is the latest recevied weather packets stored in our database for station/object SP5IZJ-2. If no packets are shown the sender has not sent any weather packets the latest 10 day(s).
| Time | Temp. | Humidity | Pressure | Rain* | Wind** | Luminosity | Snow |
|---|---|---|---|---|---|---|---|
| 1787545595 | 11.67° C | 85% | 1012.4 hPa | 0 mm | - | - | - |
| 1787545171 | 11.67° C | 85% | 1012.3 hPa | 0 mm | - | - | - |
| 1787544751 | 11.67° C | 85% | 1012.3 hPa | 0 mm | - | - | - |
| 1787544513 | 11.67° C | 86% | 1012.2 hPa | 0 mm | - | - | - |
| 1787544331 | 11.67° C | 86% | 1012.2 hPa | 0 mm | - | - | - |
| 1787543495 | 11.67° C | 86% | 1012.3 hPa | 0 mm | - | - | - |
| 1787543072 | 11.67° C | 87% | 1012.4 hPa | 0 mm | - | - | - |
| 1787541836 | 11.11° C | 88% | 1012.4 hPa | 0 mm | - | - | - |
| 1787541392 | 11.11° C | 89% | 1012.3 hPa | 0 mm | - | - | - |
| 1787540980 | 11.11° C | 89% | 1012.2 hPa | 0 mm | - | - | - |
| 1787540137 | 10.56° C | 89% | 1012.2 hPa | 0 mm | - | - | - |
| 1787539713 | 10° C | 89% | 1012.2 hPa | 0 mm | - | - | - |
| 1787539310 | 10° C | 89% | 1012.2 hPa | 0 mm | - | - | - |
| 1787538877 | 100° C | 100% | 0 hPa | 0 mm | - | - | - |
| 1787538471 | 10° C | 89% | 1012.1 hPa | 0 mm | - | - | - |
| 1787538063 | 10° C | 88% | 1012.3 hPa | 0 mm | - | - | - |
| 1787537209 | 10° C | 88% | 1012.4 hPa | 0 mm | - | - | - |
| 1787536354 | 10° C | 87% | 1012.4 hPa | 0 mm | - | - | - |
| 1787535519 | 100° C | 100% | 0 hPa | 0 mm | - | - | - |
| 1787534679 | 10.56° C | 86% | 1012.4 hPa | 0 mm | - | - | - |
| 1787534287 | 11.11° C | 86% | 1012.3 hPa | 0 mm | - | - | - |
| 1787533838 | 11.11° C | 86% | 1012.5 hPa | 0 mm | - | - | - |
| 1787533419 | 11.11° C | 86% | 1012.5 hPa | 0 mm | - | - | - |
| 1787532996 | 11.11° C | 86% | 1012.4 hPa | 0 mm | - | - | - |
| 1787532156 | 11.67° C | 85% | 1012.3 hPa | 0 mm | - | - | - |
* Rain latest hour (hover to see other rain measurements)
** Current wind speed in m/s (hover to see current wind gust speed)